Flight Track Log - Related Links

Times and Time Zones

All times are in EDT time to prevent confusion due to time zone crossing. See the N96FB flight status page for this flight to view local times or setup timezone preferences in your user account.

Time Position Orientation Groundspeed Altitude Reporting Facility
EDT Latitude Longitude Course Direction KTS MPH feet Rate Location/Type
Mon 11:08:30 AM 34.7386 -92.2400 336° Northwest 140 161 600  Level Memphis Center
Mon 11:09:00 AM 34.7572 -92.2503 336° Northwest 177 204 1,700 2,351 Climbing Memphis Center
Mon 11:10:07 AM 34.7792 -92.3167 292° West 209 241 4,400 2,409 Climbing Memphis Center
Mon 11:11:07 AM 34.7781 -92.3900 269° West 213 245 6,800 2,243 Climbing Memphis Center
Mon 11:12:02 AM 34.7708 -92.4531 262° West 221 254 8,700 1,965 Climbing Memphis Center
Mon 11:13:00 AM 34.7631 -92.5311 263° West 239 275 10,500 1,678 Climbing Memphis Center
Mon 11:14:00 AM 34.7494 -92.6067 258° West 239 275 12,000 750 Climbing Memphis Center
Mon 11:15:00 AM 34.7350 -92.7022 260° West 250 288 12,000  Level Memphis Center
Mon 11:16:00 AM 34.7228 -92.8031 262° West 289 333 12,000  Level Memphis Center
Mon 11:17:00 AM 34.6956 -92.9033 252° West 308 354 12,000  Level Memphis Center
Mon 11:18:00 AM 34.6772 -92.9836 255° West 313 360 12,000  Level Memphis Center
Mon 11:19:00 AM 34.6542 -93.0914 255° West 313 360 12,000  Level Memphis Center
Mon 11:20:00 AM 34.6331 -93.1917 256° West 313 360 12,000  Level Memphis Center
Mon 11:21:00 AM 34.6139 -93.2944 257° West 313 360 12,000  Level Memphis Center
Mon 11:22:00 AM 34.5928 -93.3922 255° West 313 360 12,000  Level Memphis Center
Mon 11:23:00 AM 34.5717 -93.4922 256° West 313 360 12,000  Level Memphis Center
Mon 11:24:00 AM 34.5525 -93.5925 257° West 313 360 12,000 -900 Level Memphis Center
Mon 11:25:00 AM 34.5372 -93.6903 259° West 313 360 10,200 -2,000 Descending Memphis Center
Mon 11:26:00 AM 34.5261 -93.7906 262° West 313 360 8,000 -1,950 Descending Memphis Center
Mon 11:27:00 AM 34.5300 -93.8764 273° West 292 336 6,300 -1,700 Descending Memphis Center

Login

Don't have an account? Register now (free) for customized features, flight alerts, and more!